Sunday, February 01, 2015
10:12 UTC
  |  Log In   |  Register Free
Airport Search:

Powell Municipal Airport
(KPOY)

Powell Municipal Airport Diagram
No Airport Diagram Available

FAA data valid effective January 08, 2015 - March 05, 2015 (unless otherwise noted).

 
 
 
 
 
 
 
 
 
 
 
 
 
 

Current Aviation Weather for Powell Municipal Airport (KPOY)

The most recent METAR observation for KPOY was updated at: 1011
METAR Summary (Translated METAR)
KPOY
010855Z AUTO 32017G22KT 10SM BKN085 M12/M13 A3015 RMK AO2
KU68
010855Z AUTO 00000KT 10SM BKN020 BKN035 BKN055 M10/M13 A3024 RMK AO2 PWINO
(15 nm NE from KPOY)
KCOD
010955Z 02010KT 10SM OVC010 M11/M12 A3020 RMK AO1
(23.1 nm SW from KPOY)
TAF Summary (Translated TAF)
KCOD
010858Z 0109/0206 36009KT P6SM OVC008 FM011500 VRB05KT P6SM SCT012 FM011800 15008KT P6SM BKN250 FM020300 25012G24KT P6SM BKN060 AMD LTD TO CLD VIS AND WIND
  Airport Weather Conditions for KPOY

 Current Weather at POY
10° F
Partly Cloudy
Northwest winds at 19.6 mph
POY NOAA Radar

Pressure: 30.14 in
Humidity: 85%
Wind: from the Northwest at 19.6 gusting to 25.3 MPH (17 gusting to 22 KT)
Dew Point: 6.8°F
Visibility: 10.00 mi


Airport Weather Forecast for KPOY

Translated METAR and TAF for KCOD
Translated METAR for KCOD (1013 UTC 01 February 2015)
found at http://aviationweather.gov/adds/metars/
 
METAR text: KCOD 010955Z 02010KT 10SM OVC010 M11/M12 A3020 RMK AO1
Conditions at: KCOD (CODY , WY, US) observed 0955 UTC 01 February 2015
Temperature: -11.0°C (12°F)
Dewpoint: -12.0°C (10°F) [RH = 92%]
Pressure (altimeter): 30.20 inches Hg (1022.8 mb)
Winds: from the NNE (20 degrees) at 12 MPH (10 knots; 5.2 m/s)
Visibility: 10 or more miles (16+ km)
Ceiling: 1000 feet AGL
Clouds: overcast cloud deck at 1000 feet AGL
Weather: no significant weather observed at this time
Translated TAF for KCOD
Forecast for: KCOD (CODY , WY, US)
TAF Text: KCOD 010858Z 0109/0206 36009KT P6SM OVC008
Forecast period: 0900 to 1500 UTC 01 February 2015
Forecast type: FROM: standard forecast or significant change
Winds: from the N (360 degrees) at 10 MPH (9 knots; 4.7 m/s)
Visibility: 6 or more miles (10+ km)
Ceiling: 800 feet AGL
Clouds: overcast cloud deck at 800 feet AGL
Weather: no significant weather forecast for this period
TAF Text: FM011500 VRB05KT P6SM SCT012
Forecast period: 1500 to 1800 UTC 01 February 2015
Forecast type: FROM: standard forecast or significant change
Winds: variable direction winds at 6 MPH (5 knots; 2.6 m/s)
Visibility: 6 or more miles (10+ km)
Clouds: scattered clouds at 1200 feet AGL
Weather: no significant weather forecast for this period
TAF Text: FM011800 15008KT P6SM BKN250
Forecast period: 1800 UTC 01 February 2015 to 0300 UTC 02 February 2015
Forecast type: FROM: standard forecast or significant change
Winds: from the SSE (150 degrees) at 9 MPH (8 knots; 4.2 m/s)
Visibility: 6 or more miles (10+ km)
Ceiling: 25000 feet AGL
Clouds: broken clouds at 25000 feet AGL
Weather: no significant weather forecast for this period
TAF Text: FM020300 25012G24KT P6SM BKN060 AMD LTD TO CLD VIS AND WIND
Forecast period: 0300 to 0600 UTC 02 February 2015
Forecast type: FROM: standard forecast or significant change
Winds: from the WSW (250 degrees) at 14 MPH (12 knots; 6.2 m/s)
gusting to 28 MPH (24 knots; 12.5 m/s)
Visibility: 6 or more miles (10+ km)
Ceiling: 6000 feet AGL
Clouds: broken clouds at 6000 feet AGL
Weather: no significant weather forecast for this period

Find All Airport Services Find A Hotel Find A Rental Car Find A Golf Course Find A Restaurant $100 Hamburger



FBO's on the Field
FBO Company Facility Photos Services Transportation Aviation Fuel Prices: Prices include tax
Catering Weather Repair Courtesy Rental Type 100LL JetA JetA+ MOGAS 8087
 
City of Powell

This FBO has not yet been rated
FS:Independent
Last Updated: Jan-29
Login to update fuel prices
SS:
Contact City of PowellMore FBO Information
 
Add another FBO Facility Photos Catering Weather Repair Courtesy Rental Type 100LL JetA JetA+ MOGAS 8087
Services Transportation Aviation Fuel Prices: Prices include tax


model-print
model-print
model-print
model-print